Embarrass, Wisconsin
Current Conditions -  °F | °C
As of 6:15 PM on Sunday 25 Jan 2015 (Local Time) from KCLI Reporting Station
Overcast Overcast  
Wind Chill: 18°   Ceiling: 12000
Heat Index: 18°   Visibility: 10mi
Dew Point:   Wind: 0mph
Humidity: 68%   Direction: NA
Pressure: 30.06"   Gusts: NA
Location:  44.67°N, 88.71°W
Report Text: KCLI 260015Z AUTO 00000KT 10SM OVC120 M08/M13 A3006 RMK AO2
Loading
Personal Weather Stations






























Interactive Weather Map New forecast layout! Learn more

10-Day Weather Forecast

Advertisements
Track Severe Weather on mobile